(°C)
-1°
-1°
-1°
(°C)
-4°
-4°
-4°
-4°
-4°
-4°
-5°
NW
NW
NW
NW
NW
NNW
NNW
(km/h)
6-12
6-13
7-12
7-11
7-10
7-12
8-12
(mm)
0
0
0.2
0
0
0
0
(%)
0
0
35
30
0
1
1

Sonnenhöhe

/ 18.1°
sun-icon
UV 0
07:43
16:16
Abnehmender Halbmond (282°)
00:00
13:52

METAR für Hof (EDQM)

Zeit Bedingungen Temperatur/
Taupunkt
Wind Sichtweite Wetter Wolken Druck Änderung Roh
IFR -1°C / -2°C variable 1kt 7000m - Broken Clouds 700ft
Overcast 5400ft
995 - EDQM 281050Z VRB01KT 7000 BKN007 OVC054 M01/M02 Q0995
IFR -1°C / -2°C variable 0kt 5000m - Broken Clouds 600ft
Broken Clouds 800ft
995 - EDQM 281020Z 00000KT 5000 BKN006 BKN008 M01/M02 Q0995
MVFR -1°C / -2°C variable 0kt 6000m - Few Clouds 700ft
Scattered Clouds 800ft
Overcast 5400ft
995 - EDQM 280950Z 00000KT 6000 FEW007 SCT008 OVC054 M01/M02 Q0995
IFR -2°C / -2°C variable 0kt 3900m Mist Vertical Visibility of 0ft.
Broken Clouds 5400ft
995 - EDQM 280920Z 00000KT 3900 BR FEW007 BKN054 M02/M02 Q0995
MVFR -3°C / -3°C variable 0kt 7000m. Runway 26: Visual range is 1100m and decreasing. - Few Clouds 600ft
Broken Clouds 5300ft
995 - EDQM 280850Z 00000KT 7000 R26/1100D FEW006 BKN053 M03/M03 Q0995
MVFR -3°C / -3°C 200º 2kt 7000m - Few Clouds 500ft
Scattered Clouds 14000ft
995 - EDQM 280820Z 20002KT 7000 FEW005 SCT140 M03/M03 Q0995
IFR -3°C / -3°C 230º 3kt 3700m Mist Vertical Visibility of 0ft. 995 - EDQM 280750Z 23003KT 3700 BR FEW007 M03/M03 Q0995
IFR -3°C / -3°C variable 2kt 4300m - Clear 995 - EDQM 280720Z AUTO VRB02KT 4300 // NCD M03/M03 Q0995
LIFR -3°C / -3°C 160º 2kt 1300m. Runway 26: Visual range is 2000m. - Clear 994 - EDQM 280650Z AUTO 16002KT 1300 R26/P2000N // NCD M03/M03 Q0994
MVFR -2°C / -3°C variable 0kt 7000m - Few Clouds 700ft
Scattered Clouds 15000ft
994 - EDQM 280620Z AUTO 00000KT 7000 // FEW007/// SCT150/// M02/M03 Q0994
IFR -2°C / -2°C variable 2kt >10km - Broken Clouds 600ft 994 - EDQM 280550Z AUTO VRB02KT 9999 // BKN006/// M02/M02 Q0994
IFR -1°C / -2°C 240º 3kt >10km - Few Clouds 500ft
Broken Clouds 600ft
Broken Clouds 700ft
994 - EDQM 280520Z AUTO 24003KT 9999 // FEW005/// BKN006/// BKN007/// M01/M02 Q0994
IFR -2°C / -2°C variable 0kt 9000m - Broken Clouds 500ft
Broken Clouds 700ft
Overcast 800ft
994 - EDQM 280450Z AUTO 00000KT 9000 // BKN005/// BKN007/// OVC008/// M02/M02 Q0994
IFR -2°C / -2°C variable 1kt 9000m - Broken Clouds 500ft
Overcast 600ft
995 - EDQM 280420Z AUTO VRB01KT 9000 // BKN005/// OVC006/// M02/M02 Q0995
IFR -2°C / -3°C 200º 3kt >10km - Broken Clouds 600ft
Overcast 700ft
994 - EDQM 280350Z AUTO 20003KT 9999 // BKN006/// OVC007/// M02/M03 Q0994
IFR -2°C / -2°C variable 3kt >10km - Broken Clouds 600ft 994 - EDQM 280320Z AUTO VRB03KT 9999 // BKN006/// M02/M02 Q0994
VFR -3°C / -3°C 200º 4kt 9000m - Few Clouds 900ft 994 - EDQM 280250Z AUTO 20004KT 9000 // FEW009/// M03/M03 Q0994
VFR -3°C / -3°C 220º 3kt >10km - Clear 994 - EDQM 280220Z AUTO 22003KT 9999 // NCD M03/M03 Q0994
MVFR -2°C / -2°C 220º 4kt >10km - Broken Clouds 1500ft
Broken Clouds 1900ft
994 - EDQM 280150Z AUTO 22004KT 9999 // BKN015/// BKN019/// M02/M02 Q0994
MVFR -1°C / -2°C 200º 4kt >10km - Broken Clouds 1700ft
Overcast 2100ft
995 - EDQM 280120Z AUTO 20004KT 9999 // BKN017/// OVC021/// M01/M02 Q0995
MVFR -1°C / -1°C 220º 3kt 8000m - Few Clouds 500ft
Scattered Clouds 1000ft
Broken Clouds 1500ft
994 - EDQM 280050Z AUTO 22003KT 8000 // FEW005/// SCT010/// BKN015/// M01/M01 Q0994
LIFR -1°C / -1°C 230º 4kt 6000m - Broken Clouds 300ft 994 - EDQM 280020Z AUTO 23004KT 6000 // BKN003/// M01/M01 Q0994
LIFR -1°C / -1°C 200º 5kt 8000m - Broken Clouds 300ft
Broken Clouds 500ft
995 - EDQM 272350Z AUTO 20005KT 8000 // BKN003/// BKN005/// M01/M01 Q0995
MVFR -2°C / -2°C 200º 3kt >10km - Scattered Clouds 700ft
Scattered Clouds 1100ft
Broken Clouds 1800ft
995 - EDQM 272320Z AUTO 20003KT 9999 // SCT007/// SCT011/// BKN018/// M02/M02 Q0995

IFR

-1°C / -2°C

[Mehr]
Wind variable 1kt
Sichtweite 7000m
Wetter -
Wolken Broken Clouds 700ft
Overcast 5400ft
Druck 995
Änderung -
Roh EDQM 281050Z VRB01KT 7000 BKN007 OVC054 M01/M02 Q0995

IFR

-1°C / -2°C

[Mehr]
Wind variable 0kt
Sichtweite 5000m
Wetter -
Wolken Broken Clouds 600ft
Broken Clouds 800ft
Druck 995
Änderung -
Roh EDQM 281020Z 00000KT 5000 BKN006 BKN008 M01/M02 Q0995

MVFR

-1°C / -2°C

[Mehr]
Wind variable 0kt
Sichtweite 6000m
Wetter -
Wolken Few Clouds 700ft
Scattered Clouds 800ft
Overcast 5400ft
Druck 995
Änderung -
Roh EDQM 280950Z 00000KT 6000 FEW007 SCT008 OVC054 M01/M02 Q0995

IFR

-2°C / -2°C

[Mehr]
Wind variable 0kt
Sichtweite 3900m
Wetter Mist
Wolken Vertical Visibility of 0ft.
Broken Clouds 5400ft
Druck 995
Änderung -
Roh EDQM 280920Z 00000KT 3900 BR FEW007 BKN054 M02/M02 Q0995

MVFR

-3°C / -3°C

[Mehr]
Wind variable 0kt
Sichtweite 7000m. Runway 26: Visual range is 1100m and decreasing.
Wetter -
Wolken Few Clouds 600ft
Broken Clouds 5300ft
Druck 995
Änderung -
Roh EDQM 280850Z 00000KT 7000 R26/1100D FEW006 BKN053 M03/M03 Q0995

MVFR

-3°C / -3°C

[Mehr]
Wind 200º 2kt
Sichtweite 7000m
Wetter -
Wolken Few Clouds 500ft
Scattered Clouds 14000ft
Druck 995
Änderung -
Roh EDQM 280820Z 20002KT 7000 FEW005 SCT140 M03/M03 Q0995

IFR

-3°C / -3°C

[Mehr]
Wind 230º 3kt
Sichtweite 3700m
Wetter Mist
Wolken Vertical Visibility of 0ft.
Druck 995
Änderung -
Roh EDQM 280750Z 23003KT 3700 BR FEW007 M03/M03 Q0995

IFR

-3°C / -3°C

[Mehr]
Wind variable 2kt
Sichtweite 4300m
Wetter -
Wolken Clear
Druck 995
Änderung -
Roh EDQM 280720Z AUTO VRB02KT 4300 // NCD M03/M03 Q0995

LIFR

-3°C / -3°C

[Mehr]
Wind 160º 2kt
Sichtweite 1300m. Runway 26: Visual range is 2000m.
Wetter -
Wolken Clear
Druck 994
Änderung -
Roh EDQM 280650Z AUTO 16002KT 1300 R26/P2000N // NCD M03/M03 Q0994

MVFR

-2°C / -3°C

[Mehr]
Wind variable 0kt
Sichtweite 7000m
Wetter -
Wolken Few Clouds 700ft
Scattered Clouds 15000ft
Druck 994
Änderung -
Roh EDQM 280620Z AUTO 00000KT 7000 // FEW007/// SCT150/// M02/M03 Q0994

IFR

-2°C / -2°C

[Mehr]
Wind variable 2kt
Sichtweite >10km
Wetter -
Wolken Broken Clouds 600ft
Druck 994
Änderung -
Roh EDQM 280550Z AUTO VRB02KT 9999 // BKN006/// M02/M02 Q0994

IFR

-1°C / -2°C

[Mehr]
Wind 240º 3kt
Sichtweite >10km
Wetter -
Wolken Few Clouds 500ft
Broken Clouds 600ft
Broken Clouds 700ft
Druck 994
Änderung -
Roh EDQM 280520Z AUTO 24003KT 9999 // FEW005/// BKN006/// BKN007/// M01/M02 Q0994

IFR

-2°C / -2°C

[Mehr]
Wind variable 0kt
Sichtweite 9000m
Wetter -
Wolken Broken Clouds 500ft
Broken Clouds 700ft
Overcast 800ft
Druck 994
Änderung -
Roh EDQM 280450Z AUTO 00000KT 9000 // BKN005/// BKN007/// OVC008/// M02/M02 Q0994

IFR

-2°C / -2°C

[Mehr]
Wind variable 1kt
Sichtweite 9000m
Wetter -
Wolken Broken Clouds 500ft
Overcast 600ft
Druck 995
Änderung -
Roh EDQM 280420Z AUTO VRB01KT 9000 // BKN005/// OVC006/// M02/M02 Q0995

IFR

-2°C / -3°C

[Mehr]
Wind 200º 3kt
Sichtweite >10km
Wetter -
Wolken Broken Clouds 600ft
Overcast 700ft
Druck 994
Änderung -
Roh EDQM 280350Z AUTO 20003KT 9999 // BKN006/// OVC007/// M02/M03 Q0994

IFR

-2°C / -2°C

[Mehr]
Wind variable 3kt
Sichtweite >10km
Wetter -
Wolken Broken Clouds 600ft
Druck 994
Änderung -
Roh EDQM 280320Z AUTO VRB03KT 9999 // BKN006/// M02/M02 Q0994

VFR

-3°C / -3°C

[Mehr]
Wind 200º 4kt
Sichtweite 9000m
Wetter -
Wolken Few Clouds 900ft
Druck 994
Änderung -
Roh EDQM 280250Z AUTO 20004KT 9000 // FEW009/// M03/M03 Q0994

VFR

-3°C / -3°C

[Mehr]
Wind 220º 3kt
Sichtweite >10km
Wetter -
Wolken Clear
Druck 994
Änderung -
Roh EDQM 280220Z AUTO 22003KT 9999 // NCD M03/M03 Q0994

MVFR

-2°C / -2°C

[Mehr]
Wind 220º 4kt
Sichtweite >10km
Wetter -
Wolken Broken Clouds 1500ft
Broken Clouds 1900ft
Druck 994
Änderung -
Roh EDQM 280150Z AUTO 22004KT 9999 // BKN015/// BKN019/// M02/M02 Q0994

MVFR

-1°C / -2°C

[Mehr]
Wind 200º 4kt
Sichtweite >10km
Wetter -
Wolken Broken Clouds 1700ft
Overcast 2100ft
Druck 995
Änderung -
Roh EDQM 280120Z AUTO 20004KT 9999 // BKN017/// OVC021/// M01/M02 Q0995

MVFR

-1°C / -1°C

[Mehr]
Wind 220º 3kt
Sichtweite 8000m
Wetter -
Wolken Few Clouds 500ft
Scattered Clouds 1000ft
Broken Clouds 1500ft
Druck 994
Änderung -
Roh EDQM 280050Z AUTO 22003KT 8000 // FEW005/// SCT010/// BKN015/// M01/M01 Q0994

LIFR

-1°C / -1°C

[Mehr]
Wind 230º 4kt
Sichtweite 6000m
Wetter -
Wolken Broken Clouds 300ft
Druck 994
Änderung -
Roh EDQM 280020Z AUTO 23004KT 6000 // BKN003/// M01/M01 Q0994

LIFR

-1°C / -1°C

[Mehr]
Wind 200º 5kt
Sichtweite 8000m
Wetter -
Wolken Broken Clouds 300ft
Broken Clouds 500ft
Druck 995
Änderung -
Roh EDQM 272350Z AUTO 20005KT 8000 // BKN003/// BKN005/// M01/M01 Q0995

MVFR

-2°C / -2°C

[Mehr]
Wind 200º 3kt
Sichtweite >10km
Wetter -
Wolken Scattered Clouds 700ft
Scattered Clouds 1100ft
Broken Clouds 1800ft
Druck 995
Änderung -
Roh EDQM 272320Z AUTO 20003KT 9999 // SCT007/// SCT011/// BKN018/// M02/M02 Q0995

TAF für Hof (EDQM)

From till


From till Wind variable 3kt. Visibility 7000m. Scattered Clouds 800ft.
Temporarly from till Visibility 3500m. Mist . Broken Clouds 800ft.
Becoming from till Wind variable 3kt. Visibility 7000m. Broken Clouds 1400ft.
With 40% probability, Temporarly from till Visibility 2000m. Light Showers Snow . Broken Clouds 1400ft.
Temporarly from till Broken Clouds 800ft.

Roh: TAF EDQM 280800Z 2809/2818 VRB03KT 7000 SCT008 TEMPO 2809/2811 3500 BR BKN008 BECMG 2810/2812 BKN014 PROB40 TEMPO 2814/2818 2000 -SHSN BKN014TCU TEMPO 2815/2818 BKN008

rainNOW: Regenvorhersage für Hof und Umgebung (25km Radius)

0.0 mm
0.0 mm
0.0 mm
0.0 mm
0.0 mm
0.0 mm
0.1 mm
0.1 mm
0.1 mm
0.1 mm
0.1 mm
0.0 mm

Aktuelle Satelliten- und Regenbilder für Hof, Deutschland

Die Standortmarkierung ist platziert auf Hof. [Mehr]

Das Echtzeit-Satellitenbild kombiniert sichtbares Licht während des Tages mit Infrarotstrahlung während der Nacht. Nachts ist das Bild nicht dunkel, da Infrarotstrahlung Temperaturunterschiede erkennen kann. Leider sind niedrige Wolken und Nebel nur schwer von den Bodentemperaturen zu unterscheiden und können daher nachts fast unsichtbar sein. Meteosat-Satellitenbilder für Europa werden alle 5 Minuten in Echtzeit aktualisiert. Die Bilder GOES-16 / GOES-17 (Nord- und Südamerika) und Himawari (Asien) werden alle 10 Minuten aktualisiert.

Niederschläge werden von Radar und Satelliten berechnet. Nachts sind die Niederschlagsberechnungen durch die Satelliten weniger genau als tagsüber. Orangene Kreuze markieren Stellen, an denen Blitze aufgenommen wurden (über Europa).

Copyright 2021 EUMETSAT / meteoblue. Blitzdaten zur Verfügung gestellt von nowcast.

Radar für Hof

Nieselregen
Leicht
Moderat
Stark
Sehr schwer
Hagel

Die Ortsmarkierung zeigt auf Hof. Diese Animation zeigt das Niederschlagsradar der letzten Stunde, sowie eine 2h Vorhersage. Nieselregen und leichter Schneefall können für das Radar unsichtbar sein. Die Niederschlagsintensität ist farbcodiert von Hellblau bis Orange.
Copyright 2021 Deutscher Wetterdienst / meteoblue.